Time;durP1;ratioP1;P1;durP2;ratioP2;P2;SDS_P1;SDS_P2;PMS_P1;PMS_P2;Temp;Humidity;BMP_temperature;BMP_pressure;BME280_temperature;BME280_humidity;BME280_pressure;Samples;Min_cycle;Max_cycle;Signal;HPM_P1;HPM_P2
2023/03/27 00:01:25;;;;;;;9.70;5.40;;;;;;;3.35;92.51;100040.52;109631;1226;62851;-67
2023/03/27 00:03:54;;;;;;;8.40;5.30;;;;;;;3.29;93.82;100032.59;109429;1225;71667;-69
2023/03/27 00:06:23;;;;;;;9.90;5.20;;;;;;;3.21;94.22;100030.91;109718;1231;70487;-68
2023/03/27 00:08:51;;;;;;;10.70;5.40;;;;;;;3.34;95.17;100031.42;109611;1226;62918;-69
2023/03/27 00:11:21;;;;;;;8.20;5.30;;;;;;;3.37;94.10;100036.25;109505;1229;61613;-67
2023/03/27 00:13:53;;;;;;;9.90;5.30;;;;;;;3.24;93.47;100035.92;109513;1228;57357;-68
2023/03/27 00:16:25;;;;;;;9.40;5.40;;;;;;;3.10;94.50;100020.14;109654;1228;72423;-68
2023/03/27 00:18:53;;;;;;;7.70;5.40;;;;;;;3.45;95.28;100031.67;109466;1232;61311;-69
2023/03/27 00:21:22;;;;;;;7.20;5.30;;;;;;;3.67;93.26;100029.14;109740;1225;59814;-70
2023/03/27 00:23:50;;;;;;;7.90;5.30;;;;;;;3.63;92.26;100031.42;109752;1231;73614;-68
2023/03/27 00:26:17;;;;;;;8.00;5.50;;;;;;;3.49;92.08;100028.54;109693;1225;61999;-68
2023/03/27 00:28:46;;;;;;;8.20;5.20;;;;;;;3.34;92.73;100025.39;109676;1231;58119;-66
2023/03/27 00:31:15;;;;;;;7.60;4.90;;;;;;;3.27;93.69;100017.54;109729;1225;72651;-68
2023/03/27 00:33:44;;;;;;;8.20;5.60;;;;;;;3.61;92.88;100014.65;109596;1229;72546;-66
2023/03/27 00:36:11;;;;;;;8.10;5.50;;;;;;;3.51;91.90;100011.58;109707;1231;59550;-67
2023/03/27 00:38:39;;;;;;;9.00;6.50;;;;;;;3.47;92.10;100011.12;109642;1231;62632;-68
2023/03/27 00:41:07;;;;;;;7.90;5.70;;;;;;;3.31;92.06;100009.95;109694;1226;59092;-68
2023/03/27 00:43:43;;;;;;;8.70;5.10;;;;;;;3.20;92.76;100004.09;109568;1231;59087;-70
2023/03/27 00:46:14;;;;;;;8.30;5.60;;;;;;;3.13;93.24;99997.75;109661;1231;72960;-66
2023/03/27 00:48:46;;;;;;;8.60;6.10;;;;;;;3.04;93.00;99990.66;109432;1225;72287;-66
2023/03/27 00:51:15;;;;;;;8.90;6.10;;;;;;;2.93;93.89;99987.30;109742;1231;60682;-66
2023/03/27 00:53:44;;;;;;;8.60;6.00;;;;;;;2.84;94.79;99983.15;109660;1226;63069;-71
2023/03/27 00:56:15;;;;;;;12.40;6.10;;;;;;;2.96;96.38;99978.20;109770;1226;59023;-67
2023/03/27 00:58:54;;;;;;;8.40;5.70;;;;;;;2.99;95.51;99978.38;109705;1226;58864;-68
2023/03/27 01:01:25;;;;;;;8.60;5.70;;;;;;;2.87;95.07;99975.77;109448;1228;74726;-68
2023/03/27 01:03:58;;;;;;;7.20;5.40;;;;;;;2.80;95.64;99976.14;111173;1226;60740;-68
2023/03/27 01:06:28;;;;;;;7.80;6.00;;;;;;;2.72;95.91;99970.34;111854;1223;70755;-67
2023/03/27 01:08:57;;;;;;;9.70;6.10;;;;;;;2.63;96.13;99965.60;109460;1230;72499;-67
2023/03/27 01:11:37;;;;;;;9.80;5.40;;;;;;;2.62;96.69;99965.35;109420;1229;62552;-68
2023/03/27 01:15:02;;;;;;;9.30;6.30;;;;;;;2.57;96.53;99961.15;109599;1226;60830;-73
2023/03/27 01:17:39;;;;;;;6.90;4.70;;;;;;;2.72;96.76;99952.29;108998;1231;64839;-69
2023/03/27 01:20:48;;;;;;;8.60;5.20;;;;;;;3.13;94.99;99951.65;109689;1226;61336;-68
2023/03/27 01:23:54;;;;;;;8.70;6.10;;;;;;;3.24;92.98;99948.48;109970;1231;68602;-69
2023/03/27 01:26:41;;;;;;;9.40;5.20;;;;;;;3.05;93.17;99935.92;109588;1229;71453;-69
2023/03/27 01:29:29;;;;;;;11.40;5.90;;;;;;;3.01;93.50;99932.91;109506;1225;62156;-69
2023/03/27 01:32:46;;;;;;;9.90;5.80;;;;;;;2.94;94.28;99935.48;111853;1225;60925;-69
2023/03/27 01:35:35;;;;;;;8.50;5.20;;;;;;;2.92;94.54;99935.09;111989;1225;62965;-68
2023/03/27 01:39:10;;;;;;;8.90;5.80;;;;;;;3.21;93.48;99934.56;111871;1225;70469;-68
2023/03/27 01:42:00;;;;;;;10.40;6.00;;;;;;;3.01;92.77;99934.09;111864;1223;60898;-68
2023/03/27 01:44:46;;;;;;;11.40;6.40;;;;;;;2.95;92.98;99931.80;111792;1225;73797;-68
2023/03/27 01:47:21;;;;;;;11.90;5.40;;;;;;;2.93;93.69;99933.83;111910;1225;57577;-69
2023/03/27 01:50:08;;;;;;;11.90;5.80;;;;;;;2.99;93.35;99935.76;111802;1225;61084;-69
2023/03/27 01:52:41;;;;;;;11.70;6.30;;;;;;;2.96;93.54;99936.92;112000;1225;62807;-68
2023/03/27 01:55:17;;;;;;;12.60;6.60;;;;;;;2.98;93.82;99931.69;111954;1226;60771;-69
2023/03/27 01:58:02;;;;;;;12.30;6.40;;;;;;;3.01;93.40;99932.52;111667;1223;60427;-69
2023/03/27 02:00:31;;;;;;;8.20;5.90;;;;;;;3.08;93.83;99931.45;111636;1224;73124;-68
2023/03/27 02:03:38;;;;;;;13.70;6.60;;;;;;;3.29;93.17;99930.81;111549;1228;61649;-67
2023/03/27 02:06:16;;;;;;;14.30;9.20;;;;;;;3.17;92.79;99929.94;111561;1224;61869;-68
2023/03/27 02:09:04;;;;;;;11.60;6.80;;;;;;;3.07;93.03;99928.07;111493;1225;74644;-68
2023/03/27 02:11:39;;;;;;;12.10;7.90;;;;;;;3.06;93.22;99927.07;111634;1227;61906;-68
2023/03/27 02:14:19;;;;;;;12.00;7.40;;;;;;;3.01;94.09;99924.97;111570;1228;68536;-69
2023/03/27 02:16:53;;;;;;;11.40;6.80;;;;;;;3.22;93.29;99925.34;111482;1224;74279;-69
2023/03/27 02:19:53;;;;;;;10.70;7.10;;;;;;;3.35;91.32;99928.95;111545;1225;63171;-68
2023/03/27 02:22:21;;;;;;;12.50;6.80;;;;;;;3.16;91.54;99926.21;111538;1224;57421;-68
2023/03/27 02:25:21;;;;;;;8.80;6.30;;;;;;;3.03;92.31;99927.09;111689;1224;72702;-67
2023/03/27 02:28:12;;;;;;;11.20;6.50;;;;;;;3.02;92.37;99928.88;111752;1223;71786;-68
2023/03/27 02:31:11;;;;;;;10.40;6.70;;;;;;;2.95;92.11;99931.82;111632;1224;61500;-69
2023/03/27 02:34:32;;;;;;;9.80;6.30;;;;;;;2.88;92.37;99927.90;111639;1224;72371;-70
2023/03/27 02:37:35;;;;;;;11.30;6.40;;;;;;;2.88;93.29;99924.81;111752;1226;61931;-68
2023/03/27 02:40:44;;;;;;;11.80;6.50;;;;;;;3.01;93.74;99922.88;111882;1226;57403;-68
2023/03/27 02:44:01;;;;;;;9.70;6.70;;;;;;;3.19;93.45;99920.54;111910;1225;72563;-69
2023/03/27 02:46:58;;;;;;;13.50;7.20;;;;;;;3.18;93.18;99925.59;111624;1223;71721;-68
2023/03/27 02:49:41;;;;;;;11.20;6.80;;;;;;;3.32;93.91;99924.63;111809;1226;70111;-70
2023/03/27 02:52:19;;;;;;;11.00;7.60;;;;;;;3.46;93.35;99925.13;111765;1226;63587;-70
2023/03/27 02:55:04;;;;;;;11.60;7.20;;;;;;;3.68;92.97;99923.00;111656;1226;57710;-69
2023/03/27 02:57:39;;;;;;;13.10;7.10;;;;;;;3.76;92.50;99919.66;111654;1226;57720;-69
2023/03/27 03:00:32;;;;;;;15.00;7.30;;;;;;;4.03;91.61;99920.30;111910;1223;73358;-70
2023/03/27 03:04:15;;;;;;;11.60;7.70;;;;;;;4.20;89.38;99915.54;111033;1230;72679;-68
2023/03/27 03:07:05;;;;;;;15.70;7.40;;;;;;;3.98;87.88;99917.29;111916;1224;60046;-68
2023/03/27 03:09:33;;;;;;;10.80;6.80;;;;;;;3.72;88.46;99913.11;111880;1224;64213;-68
2023/03/27 03:12:07;;;;;;;11.60;6.90;;;;;;;3.53;89.75;99908.90;111732;1226;57723;-69
2023/03/27 03:14:44;;;;;;;16.00;8.40;;;;;;;3.31;90.17;99906.27;111857;1225;58924;-68
2023/03/27 03:17:13;;;;;;;12.40;7.50;;;;;;;3.12;91.28;99905.98;111926;1222;72142;-68
2023/03/27 03:19:41;;;;;;;12.50;8.30;;;;;;;3.01;92.42;99906.36;111841;1225;72912;-71
2023/03/27 03:22:09;;;;;;;18.90;9.30;;;;;;;2.84;92.66;99906.25;111704;1225;71106;-71
2023/03/27 03:24:40;;;;;;;12.10;7.50;;;;;;;2.63;92.38;99897.71;111956;1224;74457;-69
2023/03/27 03:27:09;;;;;;;11.00;7.50;;;;;;;2.51;93.08;99895.63;111847;1229;59998;-69
2023/03/27 03:30:00;;;;;;;13.60;7.60;;;;;;;2.43;93.52;99889.69;111740;1226;57192;-69
2023/03/27 03:32:29;;;;;;;11.50;7.90;;;;;;;2.33;93.90;99884.48;111818;1225;71622;-68
2023/03/27 03:34:57;;;;;;;16.60;8.30;;;;;;;2.40;94.44;99888.61;112071;1226;70821;-70
2023/03/27 03:37:27;;;;;;;13.10;8.70;;;;;;;2.33;94.33;99883.84;111620;1228;67756;-72
2023/03/27 03:39:55;;;;;;;12.50;7.70;;;;;;;2.25;94.51;99880.62;111787;1228;63193;-70
2023/03/27 03:42:23;;;;;;;13.80;8.60;;;;;;;2.55;95.05;99882.86;111697;1228;60927;-70
2023/03/27 03:44:53;;;;;;;12.10;7.70;;;;;;;2.54;93.63;99884.80;111881;1225;60517;-72
2023/03/27 03:47:22;;;;;;;14.60;7.50;;;;;;;2.45;93.22;99886.67;111954;1225;73341;-70
2023/03/27 03:49:49;;;;;;;16.20;8.50;;;;;;;2.34;93.32;99882.20;111839;1227;70934;-69
2023/03/27 03:52:17;;;;;;;14.90;8.30;;;;;;;2.24;93.50;99885.67;111845;1227;68547;-68
2023/03/27 03:54:44;;;;;;;15.00;8.00;;;;;;;2.21;94.43;99884.61;111984;1225;72726;-74
2023/03/27 03:57:13;;;;;;;17.60;8.00;;;;;;;2.33;94.80;99889.83;111883;1227;57670;-74
2023/03/27 03:59:42;;;;;;;15.20;8.30;;;;;;;2.46;94.85;99892.48;111897;1224;59649;-73
2023/03/27 04:02:29;;;;;;;15.20;8.20;;;;;;;2.47;94.19;99893.95;111863;1225;63270;-73
2023/03/27 04:05:06;;;;;;;17.90;9.20;;;;;;;2.65;94.42;99893.99;111910;1225;72053;-73
2023/03/27 04:07:38;;;;;;;14.50;8.30;;;;;;;2.66;93.52;99892.41;111683;1227;60817;-74
2023/03/27 04:10:29;;;;;;;21.40;9.00;;;;;;;2.61;92.91;99894.75;111800;1223;71921;-74
2023/03/27 04:12:58;;;;;;;16.20;7.90;;;;;;;2.64;93.18;99890.98;111737;1228;57721;-72
2023/03/27 04:15:28;;;;;;;16.30;8.30;;;;;;;2.66;93.41;99892.92;111878;1227;57689;-74
2023/03/27 04:18:10;;;;;;;16.70;7.90;;;;;;;2.91;94.82;99894.55;112086;1226;61999;-73
2023/03/27 04:20:38;;;;;;;17.10;8.70;;;;;;;3.12;93.95;99891.16;112042;1223;71368;-73
2023/03/27 04:23:09;;;;;;;24.20;8.70;;;;;;;3.08;91.82;99887.77;111916;1227;60443;-74
2023/03/27 04:25:38;;;;;;;18.90;8.30;;;;;;;3.07;90.82;99890.42;112131;1225;72045;-73
2023/03/27 04:28:09;;;;;;;19.00;8.60;;;;;;;3.22;91.17;99892.34;111979;1226;58314;-72
2023/03/27 04:30:42;;;;;;;;;;;;;;;3.39;91.39;99887.10;112061;1226;60195;-71
2023/03/27 04:33:17;;;;;;;18.30;9.10;;;;;;;3.59;90.35;99884.73;112064;1225;74401;-71
2023/03/27 04:36:03;;;;;;;21.90;8.30;;;;;;;3.66;90.32;99883.69;111912;1227;61321;-71
2023/03/27 04:39:38;;;;;;;15.00;8.70;;;;;;;3.85;90.09;99881.23;112058;1225;69230;-70
2023/03/27 04:42:07;;;;;;;17.50;8.50;;;;;;;3.94;90.11;99879.30;112171;1225;74101;-71
2023/03/27 04:44:35;;;;;;;17.00;8.50;;;;;;;4.02;90.37;99881.80;111834;1228;57306;-72
2023/03/27 04:47:05;;;;;;;13.40;8.20;;;;;;;4.14;91.14;99881.61;111966;1223;57071;-71
2023/03/27 04:49:45;;;;;;;14.90;8.70;;;;;;;4.32;91.16;99879.13;111847;1226;72761;-71
2023/03/27 04:52:24;;;;;;;18.10;9.90;;;;;;;4.45;90.46;99877.64;111779;1224;72861;-72
2023/03/27 04:54:52;;;;;;;14.50;7.80;;;;;;;4.52;90.65;99876.54;111810;1228;60449;-72
2023/03/27 04:57:21;;;;;;;18.00;8.10;;;;;;;4.63;90.51;99874.73;111938;1223;63307;-72
2023/03/27 04:59:49;;;;;;;15.30;8.20;;;;;;;4.71;89.96;99875.73;111821;1229;59795;-73
2023/03/27 05:02:34;;;;;;;16.90;7.90;;;;;;;4.76;89.71;99872.34;112056;1225;57124;-72
2023/03/27 05:05:09;;;;;;;17.10;12.00;;;;;;;4.83;89.30;99864.98;111836;1225;72636;-72
2023/03/27 05:07:36;;;;;;;18.80;9.30;;;;;;;4.89;88.82;99858.08;111724;1227;72457;-73
2023/03/27 05:10:05;;;;;;;26.80;12.70;;;;;;;5.01;88.81;99859.26;111736;1223;60313;-73
2023/03/27 05:12:33;;;;;;;23.70;11.00;;;;;;;5.25;88.25;99862.86;111834;1227;63122;-75
2023/03/27 05:15:05;;;;;;;20.80;9.80;;;;;;;5.53;86.63;99862.13;111870;1224;57595;-71
2023/03/27 05:17:43;;;;;;;23.90;18.00;;;;;;;5.64;85.96;99860.86;111884;1225;57659;-73
2023/03/27 05:20:18;;;;;;;24.50;13.60;;;;;;;5.74;85.94;99855.54;111864;1225;62078;-72
2023/03/27 05:22:45;;;;;;;15.50;8.00;;;;;;;5.81;85.34;99853.73;111641;1225;61448;-73
2023/03/27 05:25:21;;;;;;;19.30;8.20;;;;;;;5.97;84.90;99854.77;111690;1225;58992;-73
2023/03/27 05:27:50;;;;;;;15.20;7.30;;;;;;;6.16;83.99;99852.27;111818;1227;73840;-72
2023/03/27 05:30:21;;;;;;;20.90;7.40;;;;;;;6.29;83.55;99846.02;111664;1228;57189;-72
2023/03/27 05:32:52;;;;;;;;;;;;;;;6.47;82.96;99847.55;111796;1225;57445;-73
2023/03/27 05:35:27;;;;;;;16.70;7.40;;;;;;;6.54;82.66;99851.40;111776;1225;62868;-72
2023/03/27 05:37:56;;;;;;;11.90;7.00;;;;;;;6.62;82.66;99847.39;111897;1225;62173;-73
2023/03/27 05:40:27;;;;;;;;;;;;;;;6.68;82.49;99843.15;111793;1225;69500;-74
2023/03/27 05:42:55;;;;;;;14.90;7.10;;;;;;;6.82;82.32;99845.83;111708;1225;74171;-76
2023/03/27 05:45:27;;;;;;;14.00;8.60;;;;;;;6.90;82.01;99843.14;111700;1228;57168;-72
2023/03/27 05:47:57;;;;;;;12.20;7.50;;;;;;;7.04;81.42;99839.21;111717;1225;61174;-71
2023/03/27 05:50:29;;;;;;;12.20;7.10;;;;;;;7.15;80.95;99834.42;111831;1224;63408;-75
2023/03/27 05:53:05;;;;;;;18.20;7.10;;;;;;;7.22;80.35;99829.29;111825;1225;62373;-72
2023/03/27 05:55:37;;;;;;;9.70;6.40;;;;;;;7.42;79.90;99829.88;112034;1225;70470;-71
2023/03/27 05:58:08;;;;;;;12.50;7.00;;;;;;;7.66;78.72;99826.77;111723;1225;73777;-72
2023/03/27 06:00:40;;;;;;;14.10;7.70;;;;;;;7.79;78.58;99820.75;111667;1228;59831;-73
2023/03/27 06:03:10;;;;;;;8.50;6.30;;;;;;;7.86;77.77;99818.35;111669;1225;57107;-74
2023/03/27 06:05:53;;;;;;;12.00;6.40;;;;;;;8.01;76.91;99814.23;111669;1223;63341;-72
2023/03/27 06:08:21;;;;;;;14.20;6.40;;;;;;;8.15;76.26;99814.40;111919;1223;61447;-73
2023/03/27 06:10:49;;;;;;;10.70;6.40;;;;;;;8.35;75.07;99813.55;111702;1223;70406;-74
2023/03/27 06:13:25;;;;;;;10.80;6.40;;;;;;;8.35;74.29;99812.15;111676;1225;63611;-72
2023/03/27 06:15:58;;;;;;;11.70;7.20;;;;;;;8.25;75.07;99802.65;111723;1224;60513;-73
2023/03/27 06:18:47;;;;;;;14.00;7.00;;;;;;;8.46;74.25;99800.57;111986;1224;58119;-76
2023/03/27 06:21:15;;;;;;;14.40;7.10;;;;;;;8.62;73.54;99795.54;111644;1225;73453;-72
2023/03/27 06:23:42;;;;;;;13.90;6.70;;;;;;;8.80;73.25;99789.23;111682;1225;61941;-73
2023/03/27 06:26:12;;;;;;;11.90;6.50;;;;;;;8.96;72.12;99781.89;112069;1223;69576;-73
2023/03/27 06:28:40;;;;;;;13.60;7.10;;;;;;;9.04;71.70;99779.27;111687;1228;74107;-72
2023/03/27 06:31:07;;;;;;;17.10;8.00;;;;;;;9.18;71.19;99777.14;111791;1227;58246;-74
2023/03/27 06:33:47;;;;;;;12.60;8.10;;;;;;;9.36;71.04;99776.38;111842;1225;59541;-73
2023/03/27 06:36:31;;;;;;;13.80;7.80;;;;;;;9.28;70.09;99772.67;111747;1225;63651;-74
2023/03/27 06:39:03;;;;;;;18.10;8.20;;;;;;;9.37;70.15;99765.84;111747;1227;72349;-70
2023/03/27 06:41:31;;;;;;;17.70;7.20;;;;;;;9.52;70.38;99763.52;111857;1225;60336;-76
2023/03/27 06:44:04;;;;;;;14.50;7.70;;;;;;;9.64;69.94;99758.54;112060;1223;63165;-71
2023/03/27 06:47:15;;;;;;;12.80;6.90;;;;;;;9.83;69.45;99760.98;111800;1228;58185;-70
2023/03/27 06:50:27;;;;;;;13.60;7.40;;;;;;;9.96;68.49;99755.70;111842;1223;60155;-71
2023/03/27 06:52:56;;;;;;;15.10;8.10;;;;;;;10.00;68.59;99747.67;111844;1224;75186;-70
2023/03/27 06:55:44;;;;;;;13.20;7.20;;;;;;;10.17;68.13;99745.75;111719;1225;71685;-71
2023/03/27 06:58:12;;;;;;;16.50;7.70;;;;;;;10.32;67.73;99737.30;111686;1222;69996;-71
2023/03/27 07:00:40;;;;;;;13.20;7.40;;;;;;;10.19;67.37;99735.83;111935;1222;62838;-71
2023/03/27 07:03:21;;;;;;;18.20;8.40;;;;;;;10.17;67.13;99730.55;111866;1225;59686;-70
2023/03/27 07:06:07;;;;;;;14.60;7.90;;;;;;;10.35;67.70;99732.20;111852;1225;57737;-70
2023/03/27 07:08:43;;;;;;;15.10;7.90;;;;;;;10.48;66.99;99731.05;111751;1223;62827;-73
2023/03/27 07:11:11;;;;;;;17.70;7.60;;;;;;;10.58;66.72;99730.56;111667;1224;60803;-75
2023/03/27 07:13:48;;;;;;;13.70;7.40;;;;;;;10.64;66.16;99733.45;111685;1224;70344;-71
2023/03/27 07:16:21;;;;;;;18.40;8.00;;;;;;;10.74;65.84;99732.56;111870;1224;64693;-73
2023/03/27 07:18:49;;;;;;;18.80;8.00;;;;;;;10.90;65.35;99735.56;111734;1228;60413;-73
2023/03/27 07:21:16;;;;;;;11.70;7.00;;;;;;;11.03;63.76;99735.55;111785;1224;57946;-70
2023/03/27 07:23:45;;;;;;;14.60;7.80;;;;;;;10.92;61.74;99734.70;112080;1223;74389;-70
2023/03/27 07:26:16;;;;;;;15.40;7.50;;;;;;;10.87;62.17;99731.46;111850;1225;72054;-72
2023/03/27 07:29:09;;;;;;;15.20;7.00;;;;;;;11.09;61.35;99729.09;111856;1225;69922;-72
2023/03/27 07:31:37;;;;;;;15.50;7.00;;;;;;;11.28;60.47;99724.83;111668;1224;72814;-71
2023/03/27 07:34:09;;;;;;;14.00;6.50;;;;;;;11.49;59.57;99720.25;111635;1228;58623;-73
2023/03/27 07:36:58;;;;;;;12.70;5.40;;;;;;;11.62;58.31;99713.64;111916;1223;58266;-71
2023/03/27 07:39:25;;;;;;;12.30;4.80;;;;;;;11.72;55.06;99709.77;111605;1224;74277;-73
2023/03/27 07:41:54;;;;;;;8.30;3.70;;;;;;;11.87;53.68;99708.71;111769;1223;61263;-72
2023/03/27 07:44:29;;;;;;;10.20;3.70;;;;;;;12.09;52.57;99705.13;111642;1224;69038;-73
2023/03/27 07:47:01;;;;;;;9.80;3.30;;;;;;;12.18;51.25;99699.14;111735;1224;73738;-72
2023/03/27 07:49:28;;;;;;;8.20;3.50;;;;;;;12.19;50.51;99697.64;111967;1226;58336;-73
2023/03/27 07:52:08;;;;;;;7.30;3.10;;;;;;;12.19;50.97;99691.89;111860;1225;61167;-73
2023/03/27 07:54:41;;;;;;;7.00;3.00;;;;;;;12.27;50.66;99690.44;111678;1225;64578;-73
2023/03/27 07:57:09;;;;;;;8.10;4.00;;;;;;;12.22;50.46;99690.25;111721;1225;60585;-73
2023/03/27 08:00:17;;;;;;;;;;;;;;;12.22;50.41;99688.48;111816;1225;70393;-74
2023/03/27 08:02:51;;;;;;;8.00;3.70;;;;;;;12.35;50.63;99680.94;111681;1224;74766;-73
2023/03/27 08:05:19;;;;;;;9.90;4.00;;;;;;;12.48;50.77;99681.81;111864;1226;57781;-71
2023/03/27 08:07:55;;;;;;;7.10;3.80;;;;;;;12.49;50.16;99678.59;111995;1225;58808;-72
2023/03/27 08:10:41;;;;;;;6.50;3.40;;;;;;;12.59;49.45;99676.57;112001;1225;73435;-72
2023/03/27 08:13:11;;;;;;;7.20;3.20;;;;;;;12.73;48.86;99668.73;111941;1224;62408;-72
2023/03/27 08:15:38;;;;;;;13.10;3.60;;;;;;;12.92;48.38;99659.70;111760;1225;69620;-72
2023/03/27 08:18:14;;;;;;;6.90;3.30;;;;;;;12.96;47.46;99652.79;111657;1226;72956;-71
2023/03/27 08:20:41;;;;;;;8.00;4.20;;;;;;;13.08;47.46;99648.45;111844;1228;57796;-72
2023/03/27 08:23:09;;;;;;;9.40;4.30;;;;;;;13.24;47.17;99643.91;111953;1223;58324;-74
2023/03/27 08:25:59;;;;;;;9.60;4.00;;;;;;;13.50;46.84;99638.00;112145;1224;74147;-71
2023/03/27 08:28:31;;;;;;;8.00;3.60;;;;;;;13.75;46.27;99633.14;111874;1224;72594;-72
2023/03/27 08:31:01;;;;;;;8.80;3.40;;;;;;;14.05;45.48;99621.31;111866;1224;69911;-72
2023/03/27 08:33:32;;;;;;;9.90;3.70;;;;;;;14.44;45.51;99616.59;112016;1225;74159;-73
2023/03/27 08:36:00;;;;;;;15.70;6.70;;;;;;;14.86;44.12;99610.63;112148;1223;60926;-73
2023/03/27 08:38:31;;;;;;;7.00;3.90;;;;;;;15.15;42.83;99607.52;111974;1225;58240;-72
2023/03/27 08:41:37;;;;;;;6.80;3.30;;;;;;;15.31;42.01;99600.17;111961;1224;72908;-72
2023/03/27 08:44:15;;;;;;;8.70;3.30;;;;;;;15.59;41.07;99587.27;111865;1225;72521;-75
2023/03/27 08:46:59;;;;;;;8.00;2.80;;;;;;;15.62;39.77;99579.40;111703;1224;59423;-72
2023/03/27 08:49:38;;;;;;;6.30;2.40;;;;;;;15.87;38.85;99580.25;111934;1226;63149;-74
2023/03/27 08:52:30;;;;;;;6.60;2.50;;;;;;;15.93;37.55;99566.20;111750;1225;57746;-75
2023/03/27 08:55:36;;;;;;;10.70;2.30;;;;;;;15.72;37.22;99554.36;111745;1223;60369;-75
2023/03/27 08:58:22;;;;;;;3.50;1.90;;;;;;;15.61;36.85;99544.55;112092;1223;64111;-74
2023/03/27 09:01:05;;;;;;;6.90;2.10;;;;;;;15.70;36.71;99542.20;111633;1224;61593;-73
2023/03/27 09:04:19;;;;;;;5.40;2.10;;;;;;;15.66;36.22;99538.56;111887;1224;59090;-72
2023/03/27 09:07:26;;;;;;;6.10;1.80;;;;;;;15.75;35.53;99531.61;111901;1224;63070;-73
2023/03/27 09:11:03;;;;;;;9.60;4.20;;;;;;;15.69;35.65;99535.42;111910;1225;58279;-72
2023/03/27 09:13:51;;;;;;;5.50;2.10;;;;;;;15.50;35.09;99535.56;111845;1224;57759;-75
2023/03/27 09:16:35;;;;;;;3.60;1.60;;;;;;;15.43;35.24;99531.43;111886;1224;74849;-73
2023/03/27 09:19:19;;;;;;;5.30;1.90;;;;;;;15.17;35.69;99531.41;112112;1224;71935;-73
2023/03/27 09:22:24;;;;;;;5.70;1.90;;;;;;;14.99;35.74;99528.61;111762;1225;69868;-72
2023/03/27 09:25:07;;;;;;;4.70;1.90;;;;;;;14.98;36.23;99526.92;111707;1226;342765;-71
2023/03/27 09:27:54;;;;;;;10.20;2.30;;;;;;;14.82;36.59;99524.33;111776;1226;61000;-71
2023/03/27 09:30:32;;;;;;;3.20;1.90;;;;;;;14.83;36.67;99515.85;111871;1225;57747;-72
2023/03/27 09:33:05;;;;;;;6.70;2.00;;;;;;;14.93;37.01;99518.92;111769;1224;74281;-70
2023/03/27 09:35:34;;;;;;;6.60;2.00;;;;;;;14.93;36.94;99508.43;111879;1225;72031;-73
2023/03/27 09:38:28;;;;;;;6.40;1.90;;;;;;;14.92;37.35;99507.81;111782;1225;62064;-74
2023/03/27 09:41:01;;;;;;;6.40;2.70;;;;;;;14.84;37.86;99502.73;111856;1227;63740;-73
2023/03/27 09:43:52;;;;;;;4.70;2.00;;;;;;;14.90;37.89;99507.04;111746;1226;58131;-72
2023/03/27 09:46:23;;;;;;;5.60;1.90;;;;;;;14.87;38.22;99509.20;111574;1224;60426;-75
2023/03/27 09:49:14;;;;;;;7.60;2.40;;;;;;;14.95;38.55;99511.33;111737;1224;73964;-75
2023/03/27 09:51:46;;;;;;;6.10;3.00;;;;;;;14.88;38.88;99516.86;111678;1227;62267;-74
2023/03/27 09:54:54;;;;;;;6.90;2.40;;;;;;;14.92;39.27;99520.46;112004;1225;59980;-77
2023/03/27 09:57:32;;;;;;;3.60;2.00;;;;;;;14.95;39.72;99522.27;111595;1228;63231;-75
2023/03/27 10:00:32;;;;;;;6.50;2.50;;;;;;;14.82;39.78;99519.92;111700;1228;61192;-73
2023/03/27 10:03:36;;;;;;;5.20;2.10;;;;;;;14.70;40.23;99520.00;111632;1224;61399;-73
2023/03/27 10:06:12;;;;;;;6.10;1.80;;;;;;;14.45;40.81;99516.42;111661;1225;73984;-76
2023/03/27 10:09:25;;;;;;;5.30;2.50;;;;;;;14.51;40.94;99518.75;111387;1225;73120;-76
2023/03/27 10:12:17;;;;;;;4.80;2.30;;;;;;;14.59;41.04;99518.93;111700;1223;71023;-76
2023/03/27 10:14:50;;;;;;;4.80;2.30;;;;;;;14.70;40.71;99521.79;111841;1225;73455;-76
2023/03/27 10:17:55;;;;;;;5.80;2.20;;;;;;;14.61;41.19;99522.06;111607;1226;57822;-74
2023/03/27 10:20:24;;;;;;;10.90;2.20;;;;;;;14.60;41.17;99512.17;111507;1225;58336;-75
2023/03/27 10:23:24;;;;;;;5.00;2.30;;;;;;;14.45;41.59;99519.38;111574;1223;74340;-73
2023/03/27 10:25:58;;;;;;;7.90;2.50;;;;;;;14.38;42.27;99515.91;111742;1227;61832;-73
2023/03/27 10:28:34;;;;;;;5.00;2.80;;;;;;;14.30;42.81;99509.94;111658;1223;70446;-73
2023/03/27 10:31:48;;;;;;;7.80;2.50;;;;;;;14.27;42.86;99512.92;111906;1225;74586;-73
2023/03/27 10:34:56;;;;;;;8.10;2.70;;;;;;;14.28;43.06;99511.58;111916;1226;58155;-74
2023/03/27 10:38:22;;;;;;;8.30;2.60;;;;;;;14.30;43.45;99508.14;111012;1231;60498;-75
2023/03/27 10:41:13;;;;;;;5.50;2.40;;;;;;;14.30;43.43;99503.45;110930;1230;74656;-75
2023/03/27 10:43:48;;;;;;;5.10;2.90;;;;;;;14.34;43.87;99506.00;111426;1227;61432;-75
2023/03/27 10:46:22;;;;;;;7.50;2.70;;;;;;;14.40;43.79;99507.98;111769;1227;59848;-74
2023/03/27 10:49:07;;;;;;;7.40;3.20;;;;;;;14.38;44.11;99503.12;111735;1225;74076;-74
2023/03/27 10:52:02;;;;;;;7.10;2.90;;;;;;;14.44;44.22;99508.45;111742;1226;57665;-75
2023/03/27 10:55:29;;;;;;;7.10;3.00;;;;;;;14.47;44.40;99518.48;111680;1225;61767;-75
2023/03/27 10:58:04;;;;;;;6.30;2.90;;;;;;;14.48;44.60;99517.32;111771;1224;63486;-75
2023/03/27 11:00:43;;;;;;;7.30;3.50;;;;;;;14.67;44.57;99514.00;111505;1227;62050;-74
2023/03/27 11:03:39;;;;;;;12.60;3.70;;;;;;;14.68;44.59;99513.77;111678;1223;70414;-72
2023/03/27 11:06:15;;;;;;;5.90;3.20;;;;;;;14.73;45.30;99503.48;111584;1225;74301;-73
2023/03/27 11:09:05;;;;;;;13.10;4.20;;;;;;;14.73;45.20;99500.27;111678;1226;60573;-75
2023/03/27 11:11:44;;;;;;;;;;;;;;;14.71;45.69;99499.73;111715;1224;58348;-74
2023/03/27 11:14:23;;;;;;;9.80;3.40;;;;;;;14.87;45.78;99500.30;111530;1227;65252;-76
2023/03/27 11:17:02;;;;;;;5.70;3.00;;;;;;;14.76;45.48;99501.63;111370;1223;72074;-75
2023/03/27 11:19:59;;;;;;;5.90;3.40;;;;;;;14.73;46.08;99502.73;111506;1224;70052;-74
2023/03/27 11:23:01;;;;;;;7.50;4.40;;;;;;;14.81;46.30;99505.21;111555;1223;74110;-74
2023/03/27 11:26:14;;;;;;;11.00;3.70;;;;;;;14.73;46.77;99506.02;111439;1225;57767;-75
2023/03/27 11:29:10;;;;;;;6.70;3.60;;;;;;;14.78;46.98;99502.31;111684;1226;61115;-76
2023/03/27 11:31:50;;;;;;;8.30;3.90;;;;;;;14.71;47.31;99490.98;111593;1228;74821;-73
2023/03/27 11:34:36;;;;;;;9.30;4.10;;;;;;;14.62;47.36;99480.96;111578;1227;62000;-73
2023/03/27 11:38:06;;;;;;;13.20;5.80;;;;;;;14.54;47.45;99471.96;111657;1225;60735;-75
2023/03/27 11:40:48;;;;;;;7.00;4.10;;;;;;;14.56;47.43;99461.85;111926;1225;62320;-75
2023/03/27 11:43:18;;;;;;;9.00;4.30;;;;;;;14.51;47.80;99453.02;111830;1226;61192;-72
2023/03/27 11:46:23;;;;;;;7.50;4.20;;;;;;;14.64;47.75;99450.92;111654;1224;58301;-75
2023/03/27 11:48:58;;;;;;;10.80;4.20;;;;;;;14.66;47.29;99452.66;111448;1223;74396;-75
2023/03/27 11:51:41;;;;;;;11.70;4.50;;;;;;;14.61;47.49;99452.01;112047;1223;72834;-73
2023/03/27 11:54:47;;;;;;;8.70;4.10;;;;;;;14.64;47.09;99452.77;111963;1224;71089;-75
2023/03/27 11:57:24;;;;;;;8.60;3.70;;;;;;;14.67;47.16;99445.17;110952;1230;63674;-76
2023/03/27 12:00:09;;;;;;;8.80;3.70;;;;;;;14.74;47.27;99444.98;111718;1224;60306;-76
2023/03/27 12:03:00;;;;;;;8.70;3.50;;;;;;;14.64;47.87;99447.98;111706;1225;58138;-73
2023/03/27 12:05:55;;;;;;;6.70;3.70;;;;;;;14.58;48.51;99444.79;111730;1226;63680;-75
2023/03/27 12:08:40;;;;;;;9.60;3.90;;;;;;;14.57;48.74;99445.30;111599;1224;60939;-75
2023/03/27 12:11:10;;;;;;;9.40;3.30;;;;;;;14.50;49.60;99442.34;112080;1225;59127;-75
2023/03/27 12:13:43;;;;;;;4.30;2.10;;;;;;;14.55;48.53;99433.66;111722;1225;72870;-74
2023/03/27 12:17:00;;;;;;;5.80;2.40;;;;;;;14.44;46.94;99428.38;111779;1227;61174;-73
2023/03/27 12:20:20;;;;;;;5.80;2.50;;;;;;;14.27;47.50;99417.61;111790;1225;60510;-76
2023/03/27 12:22:57;;;;;;;6.30;2.30;;;;;;;14.12;48.24;99409.48;111515;1224;74687;-74
2023/03/27 12:26:34;;;;;;;7.40;2.20;;;;;;;14.03;48.21;99401.29;111748;1223;61238;-78
2023/03/27 12:29:45;;;;;;;6.30;2.70;;;;;;;14.02;48.68;99390.61;111850;1225;69595;-75
2023/03/27 12:32:19;;;;;;;5.30;2.60;;;;;;;14.05;49.12;99377.97;111652;1228;72410;-73